Time,TemperatureF,DewpointF,PressureIn,WindDirection,WindDirectionDegrees,WindSpeedMPH,WindSpeedGustMPH,Humidity,HourlyPrecipIn,Conditions,Clouds,dailyrainin,SolarRadiationWatts/m^2,SoftwareType,DateUTC
2013-07-13 00:05:00,72.8,72.0,29.93,South,181,0.0,-999.0,98,-99.99,,,0.00,0,weatherlink.com 1.10,2013-07-13 04:05:00,
2013-07-13 00:20:00,72.7,72.0,29.93,South,181,0.0,-999.0,99,-99.99,,,0.00,0,weatherlink.com 1.10,2013-07-13 04:20:00,
2013-07-13 00:35:00,72.5,72.0,29.93,South,181,0.0,-999.0,99,-99.99,,,0.00,0,weatherlink.com 1.10,2013-07-13 04:35:00,
2013-07-13 00:50:00,72.1,72.0,29.92,South,181,0.0,-999.0,100,-99.99,,,0.00,0,weatherlink.com 1.10,2013-07-13 04:50:00,
2013-07-13 01:05:00,72.0,72.0,29.92,South,181,0.0,-999.0,100,-99.99,,,0.00,0,weatherlink.com 1.10,2013-07-13 05:05:00,
2013-07-13 01:20:00,71.8,72.0,29.91,South,181,0.0,-999.0,100,-99.99,,,0.00,0,weatherlink.com 1.10,2013-07-13 05:20:00,
2013-07-13 01:35:00,71.6,72.0,29.91,South,181,0.0,-999.0,100,-99.99,,,0.00,0,weatherlink.com 1.10,2013-07-13 05:35:00,
2013-07-13 01:50:00,71.5,72.0,29.91,South,181,0.0,-999.0,100,-99.99,,,0.00,0,weatherlink.com 1.10,2013-07-13 05:50:00,
2013-07-13 02:05:00,71.5,72.0,29.90,South,181,0.0,-999.0,100,-99.99,,,0.00,0,weatherlink.com 1.10,2013-07-13 06:05:00,
2013-07-13 02:20:00,71.6,72.0,29.90,South,181,0.0,-999.0,100,-99.99,,,0.00,0,weatherlink.com 1.10,2013-07-13 06:20:00,
2013-07-13 02:35:00,71.8,72.0,29.90,South,181,0.0,-999.0,100,-99.99,,,0.00,0,weatherlink.com 1.10,2013-07-13 06:35:00,
2013-07-13 02:50:00,72.1,72.0,29.90,South,181,0.0,-999.0,100,-99.99,,,0.00,0,weatherlink.com 1.10,2013-07-13 06:50:00,
2013-07-13 03:05:00,72.1,72.0,29.90,South,181,0.0,-999.0,100,-99.99,,,0.00,0,weatherlink.com 1.10,2013-07-13 07:05:00,
2013-07-13 03:20:00,72.1,72.0,29.89,South,181,0.0,-999.0,100,-99.99,,,0.00,0,weatherlink.com 1.10,2013-07-13 07:20:00,
2013-07-13 03:35:00,72.1,72.0,29.90,South,181,0.0,-999.0,100,-99.99,,,0.00,0,weatherlink.com 1.10,2013-07-13 07:35:00,
2013-07-13 03:50:00,72.1,72.0,29.90,South,181,0.0,-999.0,100,-99.99,,,0.00,0,weatherlink.com 1.10,2013-07-13 07:50:00,
2013-07-13 04:05:00,72.1,72.0,29.89,South,181,0.0,-999.0,100,-99.99,,,0.00,0,weatherlink.com 1.10,2013-07-13 08:05:00,
2013-07-13 04:20:00,72.1,72.0,29.89,South,181,0.0,-999.0,100,-99.99,,,0.00,0,weatherlink.com 1.10,2013-07-13 08:20:00,
2013-07-13 04:35:00,72.0,72.0,29.89,South,181,0.0,-999.0,100,-99.99,,,0.00,0,weatherlink.com 1.10,2013-07-13 08:35:00,
2013-07-13 04:50:00,71.8,72.0,29.89,South,181,0.0,-999.0,100,-99.99,,,0.00,0,weatherlink.com 1.10,2013-07-13 08:50:00,
2013-07-13 05:05:00,71.6,72.0,29.89,South,181,0.0,-999.0,100,-99.99,,,0.00,0,weatherlink.com 1.10,2013-07-13 09:05:00,
2013-07-13 05:19:00,71.8,72.0,29.90,South,181,0.0,-999.0,100,-99.99,,,0.01,0,weatherlink.com 1.10,2013-07-13 09:19:00,
2013-07-13 05:34:00,71.5,72.0,29.91,South,181,0.0,-999.0,100,-99.99,,,0.01,0,weatherlink.com 1.10,2013-07-13 09:34:00,
2013-07-13 05:49:00,71.3,71.0,29.90,South,181,0.0,-999.0,100,-99.99,,,0.01,0,weatherlink.com 1.10,2013-07-13 09:49:00,
2013-07-13 06:04:00,71.1,71.0,29.91,South,181,0.0,-999.0,100,-99.99,,,0.01,0,weatherlink.com 1.10,2013-07-13 10:04:00,
2013-07-13 06:19:00,71.1,71.0,29.90,South,181,0.0,-999.0,100,-99.99,,,0.01,0,weatherlink.com 1.10,2013-07-13 10:19:00,
2013-07-13 06:34:00,71.5,72.0,29.90,South,181,0.0,-999.0,100,-99.99,,,0.01,0,weatherlink.com 1.10,2013-07-13 10:34:00,
2013-07-13 06:49:00,71.1,71.0,29.90,South,181,0.0,-999.0,100,-99.99,,,0.01,5,weatherlink.com 1.10,2013-07-13 10:49:00,
2013-07-13 07:04:00,70.9,71.0,29.90,South,181,0.0,-999.0,100,-99.99,,,0.01,14,weatherlink.com 1.10,2013-07-13 11:04:00,
2013-07-13 07:19:00,71.5,72.0,29.90,South,181,0.0,-999.0,100,-99.99,,,0.01,49,weatherlink.com 1.10,2013-07-13 11:19:00,
2013-07-13 07:34:00,72.3,72.0,29.90,South,181,0.0,-999.0,100,-99.99,,,0.01,93,weatherlink.com 1.10,2013-07-13 11:34:00,
2013-07-13 07:49:00,73.0,73.0,29.90,South,181,0.0,-999.0,100,-99.99,,,0.01,135,weatherlink.com 1.10,2013-07-13 11:49:00,
2013-07-13 08:04:00,73.7,74.0,29.91,South,181,0.0,-999.0,100,-99.99,,,0.01,179,weatherlink.com 1.10,2013-07-13 12:04:00,
2013-07-13 08:19:00,74.7,75.0,29.91,SSE,155,0.0,-999.0,100,-99.99,,,0.01,227,weatherlink.com 1.10,2013-07-13 12:19:00,
2013-07-13 08:34:00,75.6,76.0,29.91,South,170,0.0,-999.0,100,-99.99,,,0.01,272,weatherlink.com 1.10,2013-07-13 12:34:00,
2013-07-13 08:49:00,76.7,76.0,29.92,South,182,0.0,-999.0,96,-99.99,,,0.01,320,weatherlink.com 1.10,2013-07-13 12:49:00,
2013-07-13 09:04:00,77.9,75.0,29.93,South,187,6.0,-999.0,89,-99.99,,,0.01,371,weatherlink.com 1.10,2013-07-13 13:04:00,
2013-07-13 09:19:00,78.8,74.0,29.94,SSW,196,4.0,-999.0,86,-99.99,,,0.01,422,weatherlink.com 1.10,2013-07-13 13:19:00,
2013-07-13 09:34:00,80.1,74.0,29.94,South,174,0.0,-999.0,82,-99.99,,,0.01,471,weatherlink.com 1.10,2013-07-13 13:34:00,
2013-07-13 09:49:00,81.1,75.0,29.94,South,182,0.0,-999.0,81,-99.99,,,0.01,519,weatherlink.com 1.10,2013-07-13 13:49:00,
2013-07-13 10:04:00,82.4,75.0,29.95,SSW,208,0.0,-999.0,78,-99.99,,,0.01,571,weatherlink.com 1.10,2013-07-13 14:04:00,
2013-07-13 10:20:00,83.0,76.0,29.95,SSE,155,1.0,-999.0,78,-99.99,,,0.01,635,weatherlink.com 1.10,2013-07-13 14:20:00,
2013-07-13 10:35:00,83.6,76.0,29.95,SE,132,0.0,-999.0,77,-99.99,,,0.01,780,weatherlink.com 1.10,2013-07-13 14:35:00,
2013-07-13 10:49:00,83.4,75.0,29.95,SE,142,6.0,-999.0,76,-99.99,,,0.01,765,weatherlink.com 1.10,2013-07-13 14:49:00,
2013-07-13 11:05:00,85.1,75.0,29.95,SSE,163,0.0,-999.0,72,-99.99,,,0.01,831,weatherlink.com 1.10,2013-07-13 15:05:00,
2013-07-13 11:19:00,84.7,75.0,29.94,SSE,150,0.0,-999.0,72,-99.99,,,0.01,186,weatherlink.com 1.10,2013-07-13 15:19:00,
2013-07-13 11:34:00,85.1,74.0,29.94,South,169,0.0,-999.0,70,-99.99,,,0.01,958,weatherlink.com 1.10,2013-07-13 15:34:00,
2013-07-13 11:49:00,85.1,74.0,29.94,SE,146,1.0,-999.0,69,-99.99,,,0.01,195,weatherlink.com 1.10,2013-07-13 15:49:00,
2013-07-13 12:05:00,86.1,73.0,29.93,SW,222,4.0,-999.0,66,-99.99,,,0.01,914,weatherlink.com 1.10,2013-07-13 16:05:00,
2013-07-13 12:20:00,86.7,74.0,29.94,SSW,204,5.0,-999.0,67,-99.99,,,0.01,260,weatherlink.com 1.10,2013-07-13 16:20:00,
2013-07-13 12:34:00,87.6,73.0,29.94,ESE,110,4.0,-999.0,63,-99.99,,,0.01,673,weatherlink.com 1.10,2013-07-13 16:34:00,
2013-07-13 12:50:00,87.2,73.0,29.93,SSE,156,5.0,-999.0,63,-99.99,,,0.01,846,weatherlink.com 1.10,2013-07-13 16:50:00,
2013-07-13 13:05:00,87.4,73.0,29.92,South,178,8.0,-999.0,63,-99.99,,,0.01,686,weatherlink.com 1.10,2013-07-13 17:05:00,
2013-07-13 13:20:00,87.4,74.0,29.92,South,175,5.0,-999.0,64,-99.99,,,0.01,592,weatherlink.com 1.10,2013-07-13 17:20:00,
2013-07-13 13:35:00,80.1,73.0,29.95,SSW,193,2.0,-999.0,78,-99.99,,,0.01,178,weatherlink.com 1.10,2013-07-13 17:35:00,
2013-07-13 13:49:00,77.7,72.0,29.95,SSW,199,6.0,-999.0,83,-99.99,,,0.01,185,weatherlink.com 1.10,2013-07-13 17:49:00,
2013-07-13 14:05:00,76.0,74.0,29.95,West,269,2.0,-999.0,92,-99.99,,,0.03,243,weatherlink.com 1.10,2013-07-13 18:05:00,
2013-07-13 14:19:00,76.0,75.0,29.94,West,269,0.0,-999.0,95,-99.99,,,0.03,353,weatherlink.com 1.10,2013-07-13 18:19:00,
2013-07-13 14:35:00,76.0,74.0,29.93,NW,309,0.0,-999.0,94,-99.99,,,0.03,232,weatherlink.com 1.10,2013-07-13 18:35:00,
2013-07-13 14:50:00,76.0,74.0,29.93,West,261,2.0,-999.0,94,-99.99,,,0.03,160,weatherlink.com 1.10,2013-07-13 18:50:00,
2013-07-13 15:05:00,76.1,74.0,29.93,West,279,0.0,-999.0,94,-99.99,,,0.03,90,weatherlink.com 1.10,2013-07-13 19:05:00,
2013-07-13 15:20:00,76.3,75.0,29.95,South,185,0.0,-999.0,94,-99.99,,,0.03,54,weatherlink.com 1.10,2013-07-13 19:20:00,
2013-07-13 15:35:00,76.0,74.0,29.94,South,178,0.0,-999.0,94,-99.99,,,0.04,40,weatherlink.com 1.10,2013-07-13 19:35:00,
2013-07-13 15:50:00,75.6,74.0,29.95,ESE,123,0.0,-999.0,95,-99.99,,,0.05,47,weatherlink.com 1.10,2013-07-13 19:50:00,
2013-07-13 16:04:00,75.3,74.0,29.95,ESE,115,0.0,-999.0,96,-99.99,,,0.06,69,weatherlink.com 1.10,2013-07-13 20:04:00,
2013-07-13 16:20:00,74.9,74.0,29.95,East,80,0.0,-999.0,97,-99.99,,,0.07,86,weatherlink.com 1.10,2013-07-13 20:20:00,
2013-07-13 16:35:00,74.0,73.0,29.95,ESE,109,0.0,-999.0,97,-99.99,,,0.07,125,weatherlink.com 1.10,2013-07-13 20:35:00,
2013-07-13 16:50:00,74.0,73.0,29.94,ESE,116,0.0,-999.0,97,-99.99,,,0.08,234,weatherlink.com 1.10,2013-07-13 20:50:00,
2013-07-13 17:05:00,74.7,74.0,29.93,SE,142,0.0,-999.0,98,-99.99,,,0.08,260,weatherlink.com 1.10,2013-07-13 21:05:00,
2013-07-13 17:20:00,75.1,74.0,29.93,SSE,163,0.0,-999.0,96,-99.99,,,0.08,316,weatherlink.com 1.10,2013-07-13 21:20:00,
2013-07-13 17:34:00,76.0,75.0,29.93,South,186,4.0,-999.0,95,-99.99,,,0.08,459,weatherlink.com 1.10,2013-07-13 21:34:00,
2013-07-13 17:50:00,77.2,75.0,29.92,East,98,2.0,-999.0,91,-99.99,,,0.08,499,weatherlink.com 1.10,2013-07-13 21:50:00,
2013-07-13 18:05:00,78.1,74.0,29.92,SSE,161,0.0,-999.0,88,-99.99,,,0.08,255,weatherlink.com 1.10,2013-07-13 22:05:00,
2013-07-13 18:20:00,78.6,74.0,29.92,SE,129,0.0,-999.0,86,-99.99,,,0.08,276,weatherlink.com 1.10,2013-07-13 22:20:00,
2013-07-13 18:35:00,78.6,74.0,29.91,SSE,157,0.0,-999.0,85,-99.99,,,0.08,158,weatherlink.com 1.10,2013-07-13 22:35:00,
2013-07-13 18:50:00,78.8,74.0,29.91,SSE,161,0.0,-999.0,86,-99.99,,,0.08,123,weatherlink.com 1.10,2013-07-13 22:50:00,
2013-07-13 19:05:00,78.6,74.0,29.92,SSE,161,2.0,-999.0,86,-99.99,,,0.08,95,weatherlink.com 1.10,2013-07-13 23:05:00,
2013-07-13 19:20:00,78.5,75.0,29.92,SSE,161,0.0,-999.0,88,-99.99,,,0.08,76,weatherlink.com 1.10,2013-07-13 23:20:00,
2013-07-13 19:35:00,78.3,75.0,29.92,SSE,161,0.0,-999.0,89,-99.99,,,0.08,60,weatherlink.com 1.10,2013-07-13 23:35:00,
2013-07-13 19:50:00,77.9,75.0,29.93,SSE,161,0.0,-999.0,90,-99.99,,,0.08,44,weatherlink.com 1.10,2013-07-13 23:50:00,
2013-07-13 20:05:00,77.6,75.0,29.94,SSE,161,0.0,-999.0,91,-99.99,,,0.08,30,weatherlink.com 1.10,2013-07-14 00:05:00,
2013-07-13 20:20:00,77.2,75.0,29.94,SSE,161,0.0,-999.0,91,-99.99,,,0.08,9,weatherlink.com 1.10,2013-07-14 00:20:00,
2013-07-13 20:35:00,76.8,74.0,29.95,SSE,161,0.0,-999.0,92,-99.99,,,0.08,0,weatherlink.com 1.10,2013-07-14 00:35:00,
2013-07-13 20:50:00,76.3,75.0,29.95,SSE,161,0.0,-999.0,94,-99.99,,,0.08,0,weatherlink.com 1.10,2013-07-14 00:50:00,
2013-07-13 21:05:00,75.8,74.0,29.95,SSE,161,0.0,-999.0,94,-99.99,,,0.08,0,weatherlink.com 1.10,2013-07-14 01:05:00,
2013-07-13 21:20:00,75.3,74.0,29.96,SSE,161,0.0,-999.0,95,-99.99,,,0.08,0,weatherlink.com 1.10,2013-07-14 01:20:00,
2013-07-13 21:35:00,75.1,74.0,29.96,SSE,155,2.0,-999.0,96,-99.99,,,0.08,0,weatherlink.com 1.10,2013-07-14 01:35:00,
2013-07-13 21:50:00,74.7,74.0,29.96,SSE,162,0.0,-999.0,97,-99.99,,,0.08,0,weatherlink.com 1.10,2013-07-14 01:50:00,
2013-07-13 22:05:00,74.6,74.0,29.96,SSE,162,0.0,-999.0,97,-99.99,,,0.08,0,weatherlink.com 1.10,2013-07-14 02:05:00,
2013-07-13 22:20:00,74.6,74.0,29.97,SSE,162,0.0,-999.0,97,-99.99,,,0.08,0,weatherlink.com 1.10,2013-07-14 02:20:00,
2013-07-13 22:35:00,74.4,74.0,29.97,SSE,162,0.0,-999.0,98,-99.99,,,0.08,0,weatherlink.com 1.10,2013-07-14 02:35:00,
2013-07-13 22:50:00,74.4,74.0,29.97,SSE,162,0.0,-999.0,98,-99.99,,,0.08,0,weatherlink.com 1.10,2013-07-14 02:50:00,
2013-07-13 23:05:00,74.4,74.0,29.97,SSE,167,4.0,-999.0,99,-99.99,,,0.08,0,weatherlink.com 1.10,2013-07-14 03:05:00,
2013-07-13 23:21:00,74.2,74.0,29.98,SSE,167,0.0,-999.0,99,-99.99,,,0.08,0,weatherlink.com 1.10,2013-07-14 03:21:00,
2013-07-13 23:35:00,74.2,74.0,29.98,SSE,153,0.0,-999.0,99,-99.99,,,0.08,0,weatherlink.com 1.10,2013-07-14 03:35:00,
2013-07-13 23:50:00,74.2,74.0,29.97,SE,146,1.0,-999.0,100,-99.99,,,0.08,0,weatherlink.com 1.10,2013-07-14 03:50:00,